Terminal Aerodrome Forecast
Issued by NWS Shreveport, LA

Home | Current Version | Previous Version | Text Only | Print | Product List | Glossary On
Versions: 1 2 3 4 5 6 7 8 9 10 11 12 13
000
FTUS44 KSHV 041227 AAA
TAFSHV
TAF AMD
KSHV 041227Z 0412/0512 VRB03KT P6SM SCT250
     FM041500 24005KT P6SM SCT250
     FM041700 17006KT P6SM SCT060 SCT250
     FM050100 16004KT P6SM FEW150 BKN250=

USA.gov is the U.S. government's official web portal to all federal, state and local government web resources and services.